Time;durP1;ratioP1;P1;durP2;ratioP2;P2;SDS_P1;SDS_P2;PMS_P1;PMS_P2;Temp;Humidity;BMP_temperature;BMP_pressure;BME280_temperature;BME280_humidity;BME280_pressure;Samples;Min_cycle;Max_cycle;Signal;HPM_P1;HPM_P2
2023/01/06 00:02:02;;;;;;;25.83;12.50;;;8.50;99.90;;;;;;5026681;28;20493;-76
2023/01/06 00:04:29;;;;;;;26.20;11.60;;;8.50;99.90;;;;;;5023828;28;20454;-77
2023/01/06 00:06:55;;;;;;;24.20;12.17;;;8.60;99.90;;;;;;5023245;28;20458;-76
2023/01/06 00:09:22;;;;;;;37.87;11.50;;;8.60;99.90;;;;;;5030550;28;20946;-76
2023/01/06 00:11:48;;;;;;;28.00;11.37;;;8.60;99.90;;;;;;5020302;28;20443;-76
2023/01/06 00:14:17;;;;;;;26.50;11.57;;;8.70;99.90;;;;;;5030519;28;20462;-76
2023/01/06 00:16:43;;;;;;;27.43;12.53;;;8.70;99.90;;;;;;5025512;28;20812;-77
2023/01/06 00:19:11;;;;;;;39.97;12.60;;;8.70;99.90;;;;;;5026232;28;20465;-78
2023/01/06 00:21:37;;;;;;;33.67;12.97;;;8.70;99.90;;;;;;5033834;28;20496;-76
2023/01/06 00:24:04;;;;;;;32.47;12.70;;;8.70;99.90;;;;;;5028297;28;20718;-77
2023/01/06 00:26:31;;;;;;;22.97;12.10;;;8.80;99.90;;;;;;5027452;28;20453;-77
2023/01/06 00:28:57;;;;;;;28.03;13.50;;;8.70;99.90;;;;;;5024825;28;20453;-77
2023/01/06 00:31:25;;;;;;;34.83;15.17;;;8.70;99.90;;;;;;5023708;28;20978;-77
2023/01/06 00:33:52;;;;;;;32.13;14.43;;;8.70;99.90;;;;;;5022369;28;20508;-76
2023/01/06 00:36:20;;;;;;;28.93;13.77;;;8.80;99.90;;;;;;5019720;28;20520;-77
2023/01/06 00:38:48;;;;;;;36.23;14.93;;;8.80;99.90;;;;;;5021378;28;20462;-77
2023/01/06 00:43:57;;;;;;;38.70;15.20;;;8.70;99.90;;;;;;5003897;28;20441;-76
2023/01/06 00:46:27;;;;;;;36.53;16.50;;;8.70;99.90;;;;;;5031625;28;20458;-76
2023/01/06 00:48:54;;;;;;;34.40;15.57;;;8.70;99.90;;;;;;5024266;28;20469;-76
2023/01/06 00:51:21;;;;;;;29.60;14.13;;;8.70;99.90;;;;;;5021871;28;20466;-77
2023/01/06 00:53:48;;;;;;;37.60;15.77;;;8.80;99.90;;;;;;5026089;28;20458;-76
2023/01/06 00:56:14;;;;;;;30.13;14.90;;;8.80;99.90;;;;;;5017407;28;20589;-76
2023/01/06 00:58:41;;;;;;;32.80;15.57;;;8.80;99.90;;;;;;5028827;28;20515;-76
2023/01/06 01:01:09;;;;;;;34.50;15.53;;;8.80;99.90;;;;;;5025419;28;20528;-76
2023/01/06 01:03:39;;;;;;;35.93;16.07;;;8.80;99.90;;;;;;5014646;28;20450;-77
2023/01/06 01:06:08;;;;;;;39.60;17.53;;;8.80;99.90;;;;;;5017151;28;20450;-76
2023/01/06 01:08:35;;;;;;;42.57;16.30;;;8.70;99.90;;;;;;5030652;28;20504;-76
2023/01/06 01:11:03;;;;;;;42.87;18.57;;;8.70;99.90;;;;;;5021067;28;20536;-76
2023/01/06 01:13:30;;;;;;;41.97;17.13;;;8.60;99.90;;;;;;5018157;28;20466;-76
2023/01/06 01:15:57;;;;;;;39.27;16.83;;;8.60;99.90;;;;;;5026934;28;20515;-76
2023/01/06 01:18:23;;;;;;;38.67;16.50;;;8.60;99.90;;;;;;5018549;28;20902;-76
2023/01/06 01:20:51;;;;;;;30.80;16.30;;;8.60;99.90;;;;;;5022825;28;20877;-76
2023/01/06 01:23:18;;;;;;;34.47;15.73;;;8.60;99.90;;;;;;5019594;28;20905;-76
2023/01/06 01:25:44;;;;;;;33.43;16.40;;;8.60;99.90;;;;;;5021531;28;20500;-76
2023/01/06 01:28:11;;;;;;;35.07;17.60;;;8.60;99.90;;;;;;5019942;28;20461;-76
2023/01/06 01:30:38;;;;;;;39.13;17.43;;;8.70;99.90;;;;;;5018618;28;20479;-76
2023/01/06 01:33:04;;;;;;;32.53;16.23;;;8.50;99.90;;;;;;5018295;28;20454;-76
2023/01/06 01:35:31;;;;;;;39.17;17.90;;;8.60;99.90;;;;;;5026964;28;20513;-76
2023/01/06 01:37:59;;;;;;;30.13;16.17;;;8.60;99.90;;;;;;5024865;28;20507;-76
2023/01/06 01:40:26;;;;;;;35.00;16.77;;;8.60;99.90;;;;;;5019165;28;20835;-76
2023/01/06 01:42:52;;;;;;;37.30;16.97;;;8.60;99.90;;;;;;5017069;28;20521;-76
2023/01/06 01:45:23;;;;;;;33.63;15.63;;;8.60;99.90;;;;;;5018242;28;20861;-76
2023/01/06 01:47:53;;;;;;;29.37;15.60;;;8.70;99.90;;;;;;5023685;28;20558;-76
2023/01/06 01:50:28;;;;;;;29.47;15.57;;;8.70;99.90;;;;;;5026146;28;20474;-76
2023/01/06 01:52:58;;;;;;;40.97;16.90;;;8.70;99.90;;;;;;5018026;28;20508;-76
2023/01/06 01:55:28;;;;;;;35.20;16.27;;;8.70;99.90;;;;;;5018394;28;20462;-76
2023/01/06 01:57:59;;;;;;;40.57;16.67;;;8.70;99.90;;;;;;5018484;28;20454;-76
2023/01/06 02:00:26;;;;;;;30.27;15.20;;;8.70;99.90;;;;;;5019634;28;20483;-76
2023/01/06 02:02:54;;;;;;;36.37;16.30;;;8.70;99.90;;;;;;5015880;28;20537;-76
2023/01/06 02:05:24;;;;;;;29.60;17.00;;;8.70;99.90;;;;;;5025164;28;20459;-76
2023/01/06 02:07:51;;;;;;;32.63;16.70;;;8.80;99.90;;;;;;5018490;28;20509;-76
2023/01/06 02:10:20;;;;;;;28.97;15.83;;;8.80;99.90;;;;;;5018319;28;20494;-76
2023/01/06 02:12:53;;;;;;;32.03;15.30;;;8.80;99.90;;;;;;5013364;28;20508;-76
2023/01/06 02:15:24;;;;;;;31.43;15.40;;;8.80;99.90;;;;;;5017997;28;20458;-76
2023/01/06 02:18:07;;;;;;;30.13;16.17;;;8.90;99.90;;;;;;5021937;28;20450;-76
2023/01/06 02:20:55;;;;;;;27.77;15.50;;;8.90;99.90;;;;;;5024964;28;20494;-76
2023/01/06 02:23:47;;;;;;;28.80;14.93;;;8.90;99.90;;;;;;5018936;28;20490;-76
2023/01/06 02:26:48;;;;;;;25.47;15.83;;;8.90;99.90;;;;;;5017952;28;20524;-76
2023/01/06 02:29:57;;;;;;;31.87;15.27;;;8.90;99.90;;;;;;5018436;28;20450;-77
2023/01/06 02:32:44;;;;;;;29.80;14.10;;;8.90;99.90;;;;;;5020487;28;20462;-77
2023/01/06 02:35:25;;;;;;;23.13;14.97;;;8.90;99.90;;;;;;5023753;28;20462;-77
2023/01/06 02:38:03;;;;;;;28.37;14.27;;;8.90;99.90;;;;;;5017934;28;20458;-77
2023/01/06 02:40:52;;;;;;;32.43;14.90;;;8.90;99.90;;;;;;5018061;28;20544;-77
2023/01/06 02:43:28;;;;;;;24.80;14.50;;;8.90;99.90;;;;;;5017856;28;20548;-77
2023/01/06 02:46:07;;;;;;;22.23;13.40;;;8.90;99.90;;;;;;5023645;28;20453;-76
2023/01/06 02:48:44;;;;;;;27.10;15.37;;;8.90;99.90;;;;;;5022720;28;20918;-77
2023/01/06 02:51:17;;;;;;;28.80;15.60;;;8.90;99.90;;;;;;5012113;28;21002;-77
2023/01/06 02:53:51;;;;;;;32.73;15.20;;;9.00;99.90;;;;;;5016526;28;20499;-77
2023/01/06 02:56:22;;;;;;;25.90;14.17;;;9.00;99.90;;;;;;5021627;28;20528;-77
2023/01/06 02:58:54;;;;;;;26.80;16.30;;;9.00;99.90;;;;;;5020779;28;20454;-77
2023/01/06 03:01:26;;;;;;;29.40;14.47;;;9.00;99.90;;;;;;5019506;28;20901;-78
2023/01/06 03:03:58;;;;;;;28.63;13.60;;;9.00;99.90;;;;;;5017514;28;20908;-77
2023/01/06 03:06:29;;;;;;;23.03;13.30;;;9.00;99.90;;;;;;5013565;28;20451;-77
2023/01/06 03:08:58;;;;;;;20.37;13.40;;;9.00;99.90;;;;;;5020002;28;20457;-77
2023/01/06 03:11:26;;;;;;;25.07;14.67;;;9.00;99.90;;;;;;5022545;28;20477;-77
2023/01/06 03:13:58;;;;;;;20.37;12.57;;;9.00;99.90;;;;;;5020033;28;21030;-77
2023/01/06 03:16:25;;;;;;;18.67;12.40;;;9.00;99.90;;;;;;5022206;28;20466;-77
2023/01/06 03:18:55;;;;;;;18.23;11.20;;;9.00;99.90;;;;;;5017681;28;20465;-77
2023/01/06 03:21:24;;;;;;;15.20;10.70;;;9.00;99.90;;;;;;5026144;28;20474;-77
2023/01/06 03:23:52;;;;;;;11.70;7.53;;;9.00;99.90;;;;;;5020427;28;20490;-77
2023/01/06 03:26:19;;;;;;;12.87;8.13;;;9.00;99.90;;;;;;5012015;28;20500;-74
2023/01/06 03:28:46;;;;;;;10.90;7.00;;;9.00;99.90;;;;;;5021325;28;20508;-76
2023/01/06 03:31:18;;;;;;;13.07;8.50;;;9.10;99.90;;;;;;5011573;28;20470;-77
2023/01/06 03:33:56;;;;;;;8.23;6.03;;;9.20;99.90;;;;;;5019177;28;20507;-77
2023/01/06 03:36:30;;;;;;;7.47;5.90;;;9.20;99.90;;;;;;5012975;28;20466;-77
2023/01/06 03:39:07;;;;;;;7.60;4.33;;;9.20;99.90;;;;;;5027091;28;20461;-76
2023/01/06 03:44:34;;;;;;;4.17;3.80;;;9.10;99.90;;;;;;5017379;28;20522;-77
2023/01/06 03:47:07;;;;;;;2.60;2.40;;;9.10;99.90;;;;;;5021094;28;21015;-76
2023/01/06 03:49:41;;;;;;;2.27;2.10;;;9.10;99.90;;;;;;5017274;28;20542;-77
2023/01/06 03:52:16;;;;;;;1.67;1.57;;;9.10;99.90;;;;;;5016684;28;20453;-76
2023/01/06 03:54:52;;;;;;;2.50;1.70;;;9.10;99.90;;;;;;5017080;28;20942;-76
2023/01/06 03:57:23;;;;;;;4.30;2.10;;;9.00;99.90;;;;;;5015453;28;20508;-76
2023/01/06 03:59:54;;;;;;;2.17;1.70;;;9.00;99.90;;;;;;5024623;28;20478;-76
2023/01/06 04:02:22;;;;;;;2.43;1.60;;;9.00;99.90;;;;;;5015630;28;20545;-76
2023/01/06 04:05:02;;;;;;;1.73;1.63;;;8.90;99.90;;;;;;5017354;28;20462;-76
2023/01/06 04:07:29;;;;;;;2.70;1.30;;;8.90;99.90;;;;;;5022379;28;20947;-76
2023/01/06 04:09:56;;;;;;;2.33;2.00;;;9.00;99.90;;;;;;5018748;28;20473;-76
2023/01/06 04:15:03;;;;;;;1.20;1.10;;;8.90;99.90;;;;;;5023257;28;20541;-76
2023/01/06 04:17:30;;;;;;;4.07;1.20;;;8.90;99.90;;;;;;5011373;28;20459;-76
2023/01/06 04:19:57;;;;;;;1.20;1.10;;;9.00;99.90;;;;;;5023096;28;20485;-76
2023/01/06 04:22:25;;;;;;;1.10;1.00;;;9.10;99.90;;;;;;5020502;28;20482;-76
2023/01/06 04:24:51;;;;;;;1.00;0.90;;;9.10;99.90;;;;;;5015123;28;20463;-76
2023/01/06 04:27:18;;;;;;;1.30;1.10;;;9.20;99.90;;;;;;5030572;28;20458;-77
2023/01/06 04:29:44;;;;;;;1.97;1.00;;;9.40;99.90;;;;;;5023794;28;20521;-76
2023/01/06 04:32:11;;;;;;;1.00;0.90;;;9.50;99.90;;;;;;5013403;28;20463;-76
2023/01/06 04:34:38;;;;;;;2.20;1.20;;;9.50;99.90;;;;;;5018522;28;20469;-76
2023/01/06 04:37:05;;;;;;;2.10;1.00;;;9.50;99.90;;;;;;5015467;28;20950;-76
2023/01/06 04:39:33;;;;;;;1.60;1.00;;;9.50;99.90;;;;;;5019217;28;20501;-76
2023/01/06 04:41:59;;;;;;;1.10;1.00;;;9.60;99.90;;;;;;5013807;28;20455;-76
2023/01/06 04:44:26;;;;;;;1.30;1.00;;;9.60;99.90;;;;;;5018864;28;20489;-77
2023/01/06 04:46:52;;;;;;;1.23;1.13;;;9.60;99.90;;;;;;5018861;28;20881;-77
2023/01/06 04:49:19;;;;;;;1.40;1.00;;;9.60;99.90;;;;;;5023461;28;20524;-77
2023/01/06 04:51:46;;;;;;;1.40;1.03;;;9.70;99.90;;;;;;5019143;28;20454;-77
2023/01/06 04:54:12;;;;;;;2.30;1.00;;;9.60;99.90;;;;;;5018947;28;20457;-77
2023/01/06 04:56:40;;;;;;;1.53;1.00;;;9.70;99.90;;;;;;5014577;28;20501;-76
2023/01/06 04:59:07;;;;;;;1.60;1.00;;;9.70;99.90;;;;;;5015809;28;20466;-77
2023/01/06 05:01:35;;;;;;;1.10;0.90;;;9.70;99.90;;;;;;5022353;28;20893;-78
2023/01/06 05:04:01;;;;;;;1.37;1.10;;;9.80;99.90;;;;;;5021204;28;20576;-77
2023/01/06 05:06:28;;;;;;;1.37;1.27;;;9.80;99.90;;;;;;5020177;28;20453;-77
2023/01/06 05:08:55;;;;;;;3.33;1.00;;;9.80;99.90;;;;;;5023414;28;21028;-77
2023/01/06 05:11:23;;;;;;;1.23;1.07;;;9.80;99.90;;;;;;5020729;28;20474;-77
2023/01/06 05:13:52;;;;;;;1.20;1.10;;;9.80;99.90;;;;;;5015395;28;20454;-77
2023/01/06 05:16:23;;;;;;;1.67;1.17;;;9.80;99.90;;;;;;5022267;28;20973;-76
2023/01/06 05:18:49;;;;;;;1.20;1.10;;;9.80;99.90;;;;;;5014002;28;20458;-76
2023/01/06 05:21:16;;;;;;;1.10;1.00;;;9.80;99.90;;;;;;5028812;28;20709;-78
2023/01/06 05:23:43;;;;;;;1.60;1.00;;;9.80;99.90;;;;;;5020773;28;20902;-76
2023/01/06 05:26:15;;;;;;;1.37;1.10;;;9.80;99.90;;;;;;5028501;28;20462;-75
2023/01/06 05:28:42;;;;;;;1.13;1.03;;;9.80;99.90;;;;;;5019736;28;21031;-76
2023/01/06 05:31:11;;;;;;;1.30;1.20;;;9.80;99.90;;;;;;5023129;28;20536;-75
2023/01/06 05:33:38;;;;;;;1.40;1.20;;;9.80;99.90;;;;;;5018831;28;20477;-76
2023/01/06 05:36:08;;;;;;;1.40;1.30;;;9.80;99.90;;;;;;5026658;28;20450;-75
2023/01/06 05:38:34;;;;;;;1.23;1.10;;;9.80;99.90;;;;;;5018625;28;20863;-76
2023/01/06 05:41:01;;;;;;;1.53;1.23;;;9.90;99.90;;;;;;5023278;28;20470;-76
2023/01/06 05:43:29;;;;;;;5.10;1.27;;;9.90;99.90;;;;;;5013990;28;21044;-76
2023/01/06 05:45:56;;;;;;;2.60;1.20;;;9.90;99.90;;;;;;5020918;28;20942;-76
2023/01/06 05:48:26;;;;;;;5.13;1.70;;;9.90;99.90;;;;;;5022373;28;20459;-76
2023/01/06 05:50:52;;;;;;;1.20;1.10;;;9.80;99.90;;;;;;5021249;28;21086;-76
2023/01/06 05:53:19;;;;;;;1.53;1.43;;;9.90;99.90;;;;;;5022225;28;20950;-77
2023/01/06 05:55:46;;;;;;;2.47;1.40;;;9.90;99.90;;;;;;5023254;28;20458;-77
2023/01/06 05:58:12;;;;;;;2.50;1.53;;;9.90;99.90;;;;;;5023613;28;20459;-76
2023/01/06 06:00:39;;;;;;;1.43;1.20;;;9.80;99.90;;;;;;5026342;28;20492;-76
2023/01/06 06:03:05;;;;;;;1.47;1.23;;;9.80;99.90;;;;;;5023890;28;20555;-76
2023/01/06 06:05:33;;;;;;;1.47;1.37;;;9.80;99.90;;;;;;5030241;28;20462;-76
2023/01/06 06:08:00;;;;;;;1.30;1.20;;;9.70;99.90;;;;;;5022749;28;20466;-76
2023/01/06 06:10:27;;;;;;;1.63;1.50;;;9.70;99.90;;;;;;5020909;28;20524;-76
2023/01/06 06:12:53;;;;;;;1.67;1.20;;;9.70;99.90;;;;;;5021090;28;20880;-77
2023/01/06 06:15:20;;;;;;;1.60;1.30;;;9.70;99.90;;;;;;5021436;28;20458;-77
2023/01/06 06:17:46;;;;;;;1.63;1.53;;;9.70;99.90;;;;;;5018506;28;20482;-76
2023/01/06 06:20:13;;;;;;;1.20;1.10;;;9.70;99.90;;;;;;5018611;28;20478;-76
2023/01/06 06:22:41;;;;;;;1.93;1.20;;;9.60;99.90;;;;;;5015102;28;20524;-76
2023/01/06 06:25:08;;;;;;;1.30;1.20;;;9.60;99.90;;;;;;5019106;28;20977;-76
2023/01/06 06:27:37;;;;;;;3.13;1.20;;;9.70;99.90;;;;;;5020037;28;20516;-75
2023/01/06 06:30:05;;;;;;;3.37;1.27;;;9.60;99.90;;;;;;5023287;28;20482;-76
2023/01/06 06:32:31;;;;;;;2.33;1.60;;;9.70;99.90;;;;;;5020472;28;20466;-76
2023/01/06 06:34:58;;;;;;;2.53;1.40;;;9.70;99.90;;;;;;5024915;28;20450;-76
2023/01/06 06:37:25;;;;;;;1.30;1.20;;;9.70;99.90;;;;;;5018645;28;20955;-76
2023/01/06 06:39:53;;;;;;;1.40;1.30;;;9.70;99.90;;;;;;5017698;28;20469;-76
2023/01/06 06:42:19;;;;;;;3.67;1.20;;;9.70;99.90;;;;;;5025939;28;20511;-76
2023/01/06 06:44:46;;;;;;;1.40;1.27;;;9.70;99.90;;;;;;5017913;28;21052;-76
2023/01/06 06:47:14;;;;;;;1.40;1.30;;;9.80;99.90;;;;;;5017314;28;20459;-75
2023/01/06 06:49:41;;;;;;;1.97;1.30;;;9.70;99.90;;;;;;5029089;28;20474;-75
2023/01/06 06:52:08;;;;;;;1.40;1.30;;;9.80;99.90;;;;;;5028913;28;20492;-76
2023/01/06 06:54:34;;;;;;;1.87;1.17;;;9.80;99.90;;;;;;5015998;28;20454;-77
2023/01/06 06:57:02;;;;;;;2.27;1.33;;;9.80;99.90;;;;;;5015568;28;20451;-75
2023/01/06 06:59:29;;;;;;;2.57;1.47;;;9.80;99.90;;;;;;5020901;28;20803;-76
2023/01/06 07:01:55;;;;;;;1.20;1.10;;;9.80;99.90;;;;;;5025493;28;20500;-75
2023/01/06 07:04:22;;;;;;;1.97;1.20;;;9.70;99.90;;;;;;5014259;28;20535;-76
2023/01/06 07:06:49;;;;;;;1.33;1.23;;;9.70;99.90;;;;;;5030084;28;20933;-74
2023/01/06 07:09:16;;;;;;;2.43;1.63;;;9.60;99.90;;;;;;5019352;28;20455;-75
2023/01/06 07:11:42;;;;;;;2.60;1.63;;;9.60;99.90;;;;;;5017829;28;20974;-75
2023/01/06 07:14:10;;;;;;;2.00;1.67;;;9.60;99.90;;;;;;5016002;28;20862;-74
2023/01/06 07:16:37;;;;;;;1.80;1.33;;;9.60;99.90;;;;;;5018340;28;20462;-74
2023/01/06 07:19:03;;;;;;;3.00;1.50;;;9.60;99.90;;;;;;5022136;28;20498;-75
2023/01/06 07:21:30;;;;;;;5.13;1.50;;;9.60;99.90;;;;;;5018365;28;20471;-74
2023/01/06 07:23:57;;;;;;;1.50;1.20;;;9.60;99.90;;;;;;5022097;28;20483;-75
2023/01/06 07:26:23;;;;;;;2.30;1.30;;;9.60;99.90;;;;;;5019012;28;20520;-75
2023/01/06 07:28:50;;;;;;;1.37;1.27;;;9.60;99.90;;;;;;5019910;28;20459;-74
2023/01/06 07:31:18;;;;;;;3.30;1.30;;;9.60;99.90;;;;;;5015221;28;21064;-75
2023/01/06 07:33:44;;;;;;;1.80;1.70;;;9.60;99.90;;;;;;5021587;28;20513;-73
2023/01/06 07:36:11;;;;;;;2.30;1.30;;;9.60;99.90;;;;;;5017968;28;20466;-74
2023/01/06 07:38:38;;;;;;;5.13;1.50;;;9.60;99.90;;;;;;5025633;28;20454;-76
2023/01/06 07:41:04;;;;;;;4.87;1.50;;;9.60;99.90;;;;;;5029966;28;20897;-74
2023/01/06 07:43:31;;;;;;;1.73;1.63;;;9.50;99.90;;;;;;5012029;28;20491;-73
2023/01/06 07:45:58;;;;;;;2.40;1.67;;;9.50;99.90;;;;;;5011149;28;20459;-74
2023/01/06 07:48:26;;;;;;;3.10;1.30;;;9.50;99.90;;;;;;5016996;28;20466;-74
2023/01/06 07:50:52;;;;;;;1.50;1.17;;;9.40;99.90;;;;;;5011592;28;20501;-75
2023/01/06 07:53:20;;;;;;;3.00;2.00;;;9.40;99.90;;;;;;5016196;28;20962;-74
2023/01/06 07:55:51;;;;;;;1.40;1.20;;;9.40;99.90;;;;;;5016866;28;21005;-74
2023/01/06 07:58:18;;;;;;;1.90;1.60;;;9.40;99.90;;;;;;5011324;28;20545;-74
2023/01/06 08:00:45;;;;;;;2.00;1.73;;;9.40;99.90;;;;;;5016589;28;20565;-73
2023/01/06 08:03:12;;;;;;;3.27;1.70;;;9.40;99.90;;;;;;5016861;28;20530;-73
2023/01/06 08:05:41;;;;;;;2.90;1.43;;;9.40;99.90;;;;;;5014930;28;20450;-74
2023/01/06 08:08:08;;;;;;;4.33;1.60;;;9.40;99.90;;;;;;5026775;28;20461;-73
2023/01/06 08:10:35;;;;;;;2.73;1.40;;;9.40;99.90;;;;;;5026610;28;20969;-73
2023/01/06 08:13:01;;;;;;;1.57;1.40;;;9.40;99.90;;;;;;5023537;28;20867;-73
2023/01/06 08:15:28;;;;;;;1.50;1.40;;;9.40;99.90;;;;;;5019642;28;20501;-74
2023/01/06 08:17:55;;;;;;;1.60;1.40;;;9.50;99.90;;;;;;5016804;28;21088;-73
2023/01/06 08:20:22;;;;;;;1.77;1.50;;;9.50;99.90;;;;;;5029535;28;20547;-73
2023/01/06 08:22:50;;;;;;;1.30;1.20;;;9.50;99.90;;;;;;5030060;28;21007;-72
2023/01/06 08:25:17;;;;;;;5.57;1.70;;;9.50;99.90;;;;;;5029535;28;20555;-73
2023/01/06 08:27:44;;;;;;;2.70;1.40;;;9.40;99.90;;;;;;5030616;28;20457;-72
2023/01/06 08:30:11;;;;;;;3.30;1.67;;;9.40;99.90;;;;;;5030325;28;20474;-74
2023/01/06 08:32:38;;;;;;;3.03;1.30;;;9.50;99.90;;;;;;5030296;28;20454;-73
2023/01/06 08:35:05;;;;;;;3.10;1.50;;;9.50;99.90;;;;;;5029982;28;20496;-74
2023/01/06 08:37:31;;;;;;;1.50;1.40;;;9.50;99.90;;;;;;5029577;28;20874;-75
2023/01/06 08:39:59;;;;;;;1.70;1.60;;;9.50;99.90;;;;;;5028976;28;20531;-75
2023/01/06 08:42:26;;;;;;;8.53;1.47;;;9.50;99.90;;;;;;5029312;28;20872;-74
2023/01/06 08:44:53;;;;;;;4.60;1.63;;;9.60;99.90;;;;;;5029912;28;20532;-74
2023/01/06 08:47:19;;;;;;;1.70;1.47;;;9.60;99.90;;;;;;5030247;28;20461;-75
2023/01/06 08:49:46;;;;;;;2.90;1.13;;;9.70;99.90;;;;;;5029899;28;20474;-74
2023/01/06 08:52:13;;;;;;;4.90;1.33;;;9.70;99.90;;;;;;5027973;28;20580;-74
2023/01/06 08:54:39;;;;;;;3.43;1.93;;;9.70;99.90;;;;;;5029419;28;20868;-74
2023/01/06 08:57:08;;;;;;;2.50;1.57;;;9.70;99.90;;;;;;5029773;28;20881;-75
2023/01/06 08:59:34;;;;;;;3.10;1.50;;;9.70;99.90;;;;;;5029009;28;21751;-75
2023/01/06 09:02:01;;;;;;;1.80;1.50;;;9.70;99.90;;;;;;5028862;28;20453;-74
2023/01/06 09:04:28;;;;;;;1.60;1.50;;;9.70;99.90;;;;;;5028789;28;20535;-76
2023/01/06 09:06:55;;;;;;;2.77;1.33;;;9.70;99.90;;;;;;5029254;28;20462;-75
2023/01/06 09:09:22;;;;;;;1.70;1.47;;;9.70;99.90;;;;;;5028535;28;20524;-75
2023/01/06 09:11:49;;;;;;;3.43;1.43;;;9.70;99.90;;;;;;5028733;28;20585;-76
2023/01/06 09:14:16;;;;;;;1.77;1.23;;;9.70;99.90;;;;;;5029209;28;20461;-75
2023/01/06 09:16:43;;;;;;;2.03;1.30;;;9.70;99.90;;;;;;5028781;28;20541;-76
2023/01/06 09:19:10;;;;;;;4.30;1.33;;;9.80;99.90;;;;;;5029197;28;20958;-78
2023/01/06 09:21:36;;;;;;;4.80;1.70;;;9.80;99.90;;;;;;5029204;28;20477;-74
2023/01/06 09:24:04;;;;;;;3.83;1.50;;;9.80;99.90;;;;;;5028671;28;20489;-74
2023/01/06 09:26:30;;;;;;;4.97;1.53;;;9.70;99.90;;;;;;5027816;28;20462;-74
2023/01/06 09:28:57;;;;;;;2.33;1.60;;;9.80;99.90;;;;;;5027878;28;20564;-75
2023/01/06 09:31:25;;;;;;;2.50;1.60;;;9.80;99.90;;;;;;5028643;28;20527;-76
2023/01/06 09:33:52;;;;;;;2.67;1.20;;;9.80;99.90;;;;;;5027598;28;20509;-74
2023/01/06 09:36:18;;;;;;;3.90;1.30;;;9.90;99.90;;;;;;5028147;28;20453;-71
2023/01/06 09:38:45;;;;;;;1.70;1.23;;;9.90;99.90;;;;;;5027813;28;20441;-74
2023/01/06 09:41:27;;;;;;;1.50;1.40;;;10.00;99.90;;;;;;5028160;28;20223;-76
2023/01/06 09:43:58;;;;;;;1.70;1.60;;;10.00;99.90;;;;;;5028658;28;20523;-75
2023/01/06 09:46:30;;;;;;;3.97;1.47;;;9.90;99.90;;;;;;5027549;28;20469;-76
2023/01/06 09:49:00;;;;;;;1.73;1.63;;;10.10;99.90;;;;;;5028861;28;20511;-74
2023/01/06 09:51:29;;;;;;;9.83;1.63;;;10.10;99.90;;;;;;5028377;28;20473;-76
2023/01/06 09:54:01;;;;;;;1.60;1.50;;;10.10;99.90;;;;;;5027533;28;20453;-76
2023/01/06 09:56:28;;;;;;;2.27;2.07;;;10.10;99.90;;;;;;5029024;28;20540;-75
2023/01/06 09:59:03;;;;;;;1.80;1.60;;;10.10;99.90;;;;;;5028766;28;20447;-75
2023/01/06 10:01:37;;;;;;;2.23;1.40;;;10.10;99.90;;;;;;5027108;28;20469;-76
2023/01/06 10:04:04;;;;;;;1.40;1.30;;;10.20;99.90;;;;;;5028728;28;20453;-74
2023/01/06 10:06:37;;;;;;;1.77;1.33;;;10.20;99.90;;;;;;5027269;28;20485;-78
2023/01/06 10:09:15;;;;;;;2.83;1.43;;;10.10;99.90;;;;;;5028440;28;20446;-75
2023/01/06 10:11:55;;;;;;;2.30;1.40;;;10.30;99.90;;;;;;5027852;28;20445;-76
2023/01/06 10:14:37;;;;;;;2.10;1.90;;;10.30;99.90;;;;;;5027934;28;20446;-75
2023/01/06 10:17:23;;;;;;;1.37;1.27;;;10.40;99.90;;;;;;5027609;28;20449;-73
2023/01/06 10:20:02;;;;;;;5.57;2.73;;;10.40;99.90;;;;;;5028013;28;20469;-73
2023/01/06 10:22:39;;;;;;;4.10;2.80;;;10.40;99.90;;;;;;5027814;28;20484;-72
2023/01/06 10:25:15;;;;;;;4.13;1.50;;;10.50;99.90;;;;;;5028197;28;20478;-76
2023/01/06 10:27:46;;;;;;;1.53;1.30;;;10.60;99.90;;;;;;5027501;28;20454;-74
2023/01/06 10:30:19;;;;;;;2.90;1.20;;;10.80;99.90;;;;;;5028185;28;20990;-73
2023/01/06 10:32:49;;;;;;;3.67;1.20;;;11.10;99.90;;;;;;5027881;28;20868;-74
2023/01/06 10:35:18;;;;;;;2.33;1.20;;;11.30;99.90;;;;;;5027702;28;20451;-76
2023/01/06 10:37:47;;;;;;;1.20;1.10;;;11.50;99.90;;;;;;5028415;28;20450;-74
2023/01/06 10:40:19;;;;;;;1.73;1.17;;;11.70;99.90;;;;;;5027178;28;20945;-73
2023/01/06 10:42:59;;;;;;;1.80;1.53;;;11.60;99.90;;;;;;5027933;28;20450;-74
2023/01/06 10:45:31;;;;;;;1.30;1.20;;;11.60;99.90;;;;;;5026975;28;20517;-73
2023/01/06 10:48:00;;;;;;;1.60;1.20;;;11.60;99.90;;;;;;5027289;28;20459;-74
2023/01/06 10:50:27;;;;;;;1.47;1.37;;;11.50;99.90;;;;;;5027818;28;20479;-74
2023/01/06 10:52:54;;;;;;;1.37;1.27;;;11.50;99.90;;;;;;5027780;28;20500;-74
2023/01/06 10:55:34;;;;;;;1.87;1.07;;;11.40;99.90;;;;;;5026647;28;20500;-74
2023/01/06 10:58:10;;;;;;;1.20;1.10;;;11.50;99.90;;;;;;5027755;28;20468;-73
2023/01/06 11:00:37;;;;;;;1.60;1.10;;;11.80;99.90;;;;;;5026522;28;20569;-73
2023/01/06 11:03:06;;;;;;;1.60;1.13;;;12.00;99.90;;;;;;5026305;28;20464;-73
2023/01/06 11:05:34;;;;;;;1.33;1.23;;;12.10;99.90;;;;;;5026463;28;20493;-76
2023/01/06 11:08:06;;;;;;;1.30;1.20;;;12.10;99.90;;;;;;5025732;28;20467;-76
2023/01/06 11:10:38;;;;;;;1.27;1.17;;;12.00;99.90;;;;;;5025120;28;20494;-75
2023/01/06 11:13:07;;;;;;;1.30;1.20;;;11.80;99.90;;;;;;5026298;28;20457;-74
2023/01/06 11:15:40;;;;;;;1.20;1.10;;;11.70;99.90;;;;;;5025478;28;20506;-75
2023/01/06 11:18:21;;;;;;;1.40;1.30;;;11.70;99.90;;;;;;5026885;28;20459;-75
2023/01/06 11:21:03;;;;;;;1.53;1.43;;;11.60;99.90;;;;;;5025929;28;20498;-75
2023/01/06 11:23:30;;;;;;;1.20;1.10;;;11.60;99.90;;;;;;5026234;28;20997;-75
2023/01/06 11:26:02;;;;;;;1.53;1.27;;;11.60;99.90;;;;;;5026628;28;20549;-75
2023/01/06 11:28:30;;;;;;;1.63;1.20;;;11.50;99.90;;;;;;5026255;28;20451;-75
2023/01/06 11:31:01;;;;;;;3.87;1.53;;;11.50;99.90;;;;;;5027359;28;20483;-74
2023/01/06 11:33:31;;;;;;;1.77;1.20;;;11.50;99.90;;;;;;5025296;28;20476;-75
2023/01/06 11:36:02;;;;;;;1.63;1.10;;;11.60;99.90;;;;;;5025327;28;20454;-75
2023/01/06 11:38:30;;;;;;;2.40;0.90;;;11.70;99.90;;;;;;5027268;28;20470;-74
2023/01/06 11:40:56;;;;;;;1.20;1.10;;;11.70;99.90;;;;;;5025620;28;20479;-76
2023/01/06 11:43:29;;;;;;;2.27;1.00;;;11.70;99.90;;;;;;5025357;28;20981;-74
2023/01/06 11:45:59;;;;;;;2.40;1.00;;;11.70;99.90;;;;;;5026260;28;20492;-74
2023/01/06 11:48:28;;;;;;;2.03;1.10;;;11.70;99.90;;;;;;5025808;28;20465;-76
2023/01/06 11:50:57;;;;;;;1.50;1.20;;;11.70;99.90;;;;;;5026345;28;20523;-75
2023/01/06 11:53:24;;;;;;;1.30;1.20;;;11.60;99.90;;;;;;5025316;28;21123;-76
2023/01/06 11:56:00;;;;;;;2.20;1.30;;;11.50;99.90;;;;;;5025684;28;20458;-75
2023/01/06 11:58:37;;;;;;;1.10;1.00;;;11.50;99.90;;;;;;5027204;28;20461;-75
2023/01/06 12:01:08;;;;;;;1.40;1.30;;;11.50;99.90;;;;;;5025049;28;20524;-75
2023/01/06 12:03:40;;;;;;;1.93;1.50;;;11.50;99.90;;;;;;5026149;28;20529;-75
2023/01/06 12:06:18;;;;;;;1.40;1.20;;;11.50;99.90;;;;;;5027096;28;20482;-76
2023/01/06 12:08:51;;;;;;;1.20;1.10;;;11.40;99.90;;;;;;5026102;28;20993;-76
2023/01/06 12:11:21;;;;;;;1.30;1.20;;;11.40;99.90;;;;;;5026829;28;20470;-76
2023/01/06 12:13:48;;;;;;;1.30;1.20;;;11.30;99.90;;;;;;5026067;28;20659;-75
2023/01/06 12:16:22;;;;;;;1.50;1.20;;;11.30;99.90;;;;;;5024624;28;20488;-75
2023/01/06 12:18:50;;;;;;;1.10;1.00;;;11.20;99.90;;;;;;5026981;28;20549;-75
2023/01/06 12:21:26;;;;;;;1.20;1.10;;;11.20;99.90;;;;;;5025920;28;20812;-75
2023/01/06 12:23:54;;;;;;;4.50;1.30;;;11.20;99.90;;;;;;5025608;28;20453;-76
2023/01/06 12:26:23;;;;;;;1.30;1.20;;;11.20;99.90;;;;;;5025438;28;20494;-76
2023/01/06 12:28:52;;;;;;;1.40;1.30;;;11.20;99.90;;;;;;5025944;28;20913;-76
2023/01/06 12:31:26;;;;;;;1.30;1.20;;;11.20;99.90;;;;;;5026511;28;20479;-77
2023/01/06 12:33:59;;;;;;;1.30;1.20;;;11.20;99.90;;;;;;5025935;28;20692;-75
2023/01/06 12:36:35;;;;;;;1.33;1.10;;;11.20;99.90;;;;;;5025327;28;20964;-75
2023/01/06 12:39:04;;;;;;;1.40;1.30;;;11.10;99.90;;;;;;5026009;28;20886;-75
2023/01/06 12:41:35;;;;;;;1.20;1.10;;;11.10;99.90;;;;;;5025128;28;20896;-75
2023/01/06 12:44:13;;;;;;;3.70;1.60;;;11.10;99.90;;;;;;5025497;28;20452;-76
2023/01/06 12:46:46;;;;;;;1.20;1.10;;;11.00;99.90;;;;;;5026340;28;21042;-75
2023/01/06 12:49:21;;;;;;;1.37;1.20;;;11.00;99.90;;;;;;5025569;28;20521;-75
2023/01/06 12:51:54;;;;;;;1.50;1.40;;;11.00;99.90;;;;;;5025876;28;20859;-75
2023/01/06 12:54:27;;;;;;;1.20;1.10;;;11.00;99.90;;;;;;5026116;28;20450;-76
2023/01/06 12:57:10;;;;;;;1.40;1.30;;;11.00;99.90;;;;;;5023922;28;20460;-74
2023/01/06 12:59:49;;;;;;;2.70;1.20;;;11.00;99.90;;;;;;5024375;28;21074;-74
2023/01/06 13:02:32;;;;;;;1.30;1.20;;;11.00;99.90;;;;;;5024485;28;20446;-75
2023/01/06 13:05:21;;;;;;;1.50;1.10;;;11.10;99.90;;;;;;5026915;28;20457;-75
2023/01/06 13:07:59;;;;;;;1.30;1.20;;;11.10;99.90;;;;;;5028417;28;20819;-75
2023/01/06 13:10:31;;;;;;;1.40;1.30;;;11.10;99.90;;;;;;5027638;28;20457;-74